createdAt,value
2023-04-19T00:01:32.679Z,99.90
2023-04-19T00:03:59.649Z,99.90
2023-04-19T00:06:30.361Z,99.90
2023-04-19T00:08:57.630Z,99.90
2023-04-19T00:11:24.937Z,99.90
2023-04-19T00:13:51.790Z,99.90
2023-04-19T00:16:18.646Z,99.90
2023-04-19T00:18:46.805Z,99.90
2023-04-19T00:21:13.654Z,99.90
2023-04-19T00:23:40.589Z,99.90
2023-04-19T00:26:07.353Z,99.90
2023-04-19T00:28:35.086Z,99.90
2023-04-19T00:31:02.023Z,99.90
2023-04-19T00:33:28.833Z,99.90
2023-04-19T00:35:55.549Z,99.90
2023-04-19T00:38:22.288Z,99.90
2023-04-19T00:40:49.008Z,99.90
2023-04-19T00:43:22.262Z,99.90
2023-04-19T00:45:49.856Z,99.90
2023-04-19T00:48:17.198Z,99.90
2023-04-19T00:50:45.424Z,99.90
2023-04-19T00:53:12.461Z,99.90
2023-04-19T00:55:39.745Z,99.90
2023-04-19T00:58:07.676Z,99.90
2023-04-19T01:00:35.000Z,99.90
2023-04-19T01:03:01.852Z,99.90
2023-04-19T01:05:28.724Z,99.90
2023-04-19T01:07:55.458Z,99.90
2023-04-19T01:10:22.257Z,99.90
2023-04-19T01:12:49.008Z,99.90
2023-04-19T01:15:15.821Z,99.90
2023-04-19T01:17:42.941Z,99.90
2023-04-19T01:20:10.699Z,99.90
2023-04-19T01:22:40.287Z,99.90
2023-04-19T01:25:07.624Z,99.90
2023-04-19T01:27:34.770Z,99.90
2023-04-19T01:30:01.566Z,99.90
2023-04-19T01:32:28.416Z,99.90
2023-04-19T01:34:55.334Z,99.90
2023-04-19T01:37:22.334Z,99.90
2023-04-19T01:39:49.330Z,99.90
2023-04-19T01:42:16.181Z,99.90
2023-04-19T01:44:42.972Z,99.90
2023-04-19T01:47:09.854Z,99.90
2023-04-19T01:49:36.778Z,99.90
2023-04-19T01:52:03.693Z,99.90
2023-04-19T01:54:30.537Z,99.90
2023-04-19T01:56:57.377Z,99.90
2023-04-19T01:59:24.340Z,99.90
2023-04-19T02:01:51.125Z,99.90
2023-04-19T02:04:20.584Z,99.90
2023-04-19T02:06:47.403Z,99.90
2023-04-19T02:09:14.170Z,99.90
2023-04-19T02:11:41.007Z,99.90
2023-04-19T02:14:07.687Z,99.90
2023-04-19T02:16:35.999Z,99.90
2023-04-19T02:19:03.431Z,99.90
2023-04-19T02:21:30.174Z,99.90
2023-04-19T02:23:56.952Z,99.90
2023-04-19T02:26:24.710Z,99.90
2023-04-19T02:28:52.947Z,99.90
2023-04-19T02:31:19.885Z,99.90
2023-04-19T02:33:46.902Z,99.90
2023-04-19T02:36:13.643Z,99.90
2023-04-19T02:38:40.814Z,99.90
2023-04-19T02:41:07.737Z,99.90
2023-04-19T02:43:34.500Z,99.90
2023-04-19T02:46:01.846Z,99.90
2023-04-19T02:48:28.810Z,99.90
2023-04-19T02:50:55.659Z,99.90
2023-04-19T02:53:22.638Z,99.90
2023-04-19T02:55:49.678Z,99.90
2023-04-19T02:58:16.480Z,99.90
2023-04-19T03:00:43.254Z,99.90
2023-04-19T03:03:10.276Z,99.90
2023-04-19T03:05:37.257Z,99.90
2023-04-19T03:08:04.213Z,99.90
2023-04-19T03:10:31.035Z,99.90
2023-04-19T03:12:57.790Z,99.90
2023-04-19T03:15:24.565Z,99.90
2023-04-19T03:17:51.339Z,99.90
2023-04-19T03:20:18.256Z,99.90
2023-04-19T03:22:45.429Z,99.90
2023-04-19T03:25:15.034Z,99.90
2023-04-19T03:27:41.865Z,99.90
2023-04-19T03:30:09.386Z,99.90
2023-04-19T03:32:36.414Z,99.90
2023-04-19T03:35:03.630Z,99.90
2023-04-19T03:37:30.448Z,99.90
2023-04-19T03:39:57.365Z,99.90
2023-04-19T03:42:24.088Z,99.90
2023-04-19T03:44:50.814Z,99.90
2023-04-19T03:47:17.553Z,99.90
2023-04-19T03:49:44.397Z,99.90
2023-04-19T03:52:11.151Z,99.90
2023-04-19T03:54:37.948Z,99.90
2023-04-19T03:57:04.740Z,99.90
2023-04-19T03:59:31.992Z,99.90
2023-04-19T04:01:59.017Z,99.90
2023-04-19T04:04:26.050Z,99.90
2023-04-19T04:06:52.897Z,99.90
2023-04-19T04:09:19.749Z,99.90
2023-04-19T04:11:46.522Z,99.90
2023-04-19T04:14:16.965Z,99.90
2023-04-19T04:16:44.112Z,99.90
2023-04-19T04:19:11.087Z,99.90
2023-04-19T04:21:37.845Z,99.90
2023-04-19T04:24:05.321Z,99.90
2023-04-19T04:26:33.924Z,99.90
2023-04-19T04:29:01.918Z,99.90
2023-04-19T04:31:28.728Z,99.90
2023-04-19T04:33:55.632Z,99.90
2023-04-19T04:36:22.355Z,99.90
2023-04-19T04:38:49.294Z,99.90
2023-04-19T04:41:16.699Z,99.90
2023-04-19T04:43:43.581Z,99.90
2023-04-19T04:46:10.512Z,99.90
2023-04-19T04:48:37.364Z,99.90
2023-04-19T04:51:04.254Z,99.90
2023-04-19T04:53:31.074Z,99.90
2023-04-19T04:55:57.965Z,99.90
2023-04-19T04:58:24.798Z,99.90
2023-04-19T05:00:51.718Z,99.90
2023-04-19T05:03:18.586Z,99.90
2023-04-19T05:05:45.508Z,99.90
2023-04-19T05:08:12.442Z,99.90
2023-04-19T05:10:39.218Z,99.90
2023-04-19T05:13:05.877Z,99.90
2023-04-19T05:15:32.696Z,99.90
2023-04-19T05:17:59.699Z,99.90
2023-04-19T05:20:26.688Z,99.90
2023-04-19T05:23:01.450Z,99.90
2023-04-19T05:25:28.263Z,99.90
2023-04-19T05:27:55.017Z,99.90
2023-04-19T05:30:21.889Z,99.90
2023-04-19T05:32:48.735Z,99.90
2023-04-19T05:35:15.643Z,99.90
2023-04-19T05:37:42.419Z,99.90
2023-04-19T05:40:10.353Z,99.90
2023-04-19T05:42:38.132Z,99.90
2023-04-19T05:45:06.688Z,99.90
2023-04-19T05:47:33.815Z,99.90
2023-04-19T05:50:00.688Z,99.90
2023-04-19T05:52:27.524Z,99.90
2023-04-19T05:54:54.227Z,99.90
2023-04-19T05:57:20.967Z,99.90
2023-04-19T05:59:47.801Z,99.90
2023-04-19T06:02:14.842Z,99.90
2023-04-19T06:04:41.955Z,99.90
2023-04-19T06:07:17.788Z,99.90
2023-04-19T06:09:55.850Z,99.90
2023-04-19T06:12:22.752Z,99.90
2023-04-19T06:14:49.654Z,99.90
2023-04-19T06:17:17.020Z,99.90
2023-04-19T06:19:43.864Z,99.90
2023-04-19T06:22:10.683Z,99.90
2023-04-19T06:24:37.493Z,99.90
2023-04-19T06:27:04.336Z,99.90
2023-04-19T06:29:31.098Z,99.90
2023-04-19T06:31:58.001Z,99.90
2023-04-19T06:34:25.115Z,99.90
2023-04-19T06:36:51.973Z,99.90
2023-04-19T06:39:18.725Z,99.90
2023-04-19T06:41:45.835Z,99.90
2023-04-19T06:44:13.436Z,99.90
2023-04-19T06:46:40.306Z,99.90
2023-04-19T06:49:07.277Z,99.90
2023-04-19T06:51:34.159Z,99.90
2023-04-19T06:54:00.988Z,99.90
2023-04-19T06:56:47.445Z,99.90
2023-04-19T06:59:16.594Z,99.90
2023-04-19T07:01:44.295Z,99.90
2023-04-19T07:04:12.328Z,99.90
2023-04-19T07:06:39.888Z,99.90
2023-04-19T07:09:07.698Z,99.90
2023-04-19T07:11:34.818Z,99.90
2023-04-19T07:14:01.719Z,99.90
2023-04-19T07:16:28.839Z,99.90
2023-04-19T07:18:55.933Z,99.90
2023-04-19T07:21:24.837Z,99.90
2023-04-19T07:23:51.520Z,99.90
2023-04-19T07:26:18.460Z,99.90
2023-04-19T07:28:45.217Z,99.90
2023-04-19T07:31:16.713Z,99.90
2023-04-19T07:33:44.134Z,99.90
2023-04-19T07:36:11.576Z,99.90
2023-04-19T07:38:38.710Z,99.90
2023-04-19T07:41:06.597Z,99.90
2023-04-19T07:43:33.776Z,99.90
2023-04-19T07:46:00.744Z,99.90
2023-04-19T07:48:27.704Z,99.90
2023-04-19T07:50:54.583Z,99.90
2023-04-19T07:53:21.453Z,99.90
2023-04-19T07:55:48.193Z,99.90
2023-04-19T07:58:14.968Z,99.90
2023-04-19T08:00:41.707Z,99.50
2023-04-19T08:03:08.723Z,98.90
2023-04-19T08:05:35.772Z,98.90
2023-04-19T08:08:02.776Z,98.10
2023-04-19T08:10:30.945Z,97.40
2023-04-19T08:13:05.649Z,97.70
2023-04-19T08:18:07.381Z,97.00
2023-04-19T08:20:34.625Z,96.50
2023-04-19T08:23:10.519Z,95.50
2023-04-19T08:25:45.335Z,95.70
2023-04-19T08:28:12.712Z,95.70
2023-04-19T08:30:40.403Z,95.40
2023-04-19T08:33:07.165Z,94.90
2023-04-19T08:35:36.138Z,94.40
2023-04-19T08:38:04.470Z,93.90
2023-04-19T08:40:31.725Z,94.00
2023-04-19T08:42:58.895Z,93.20
2023-04-19T08:45:29.388Z,93.00
2023-04-19T08:48:01.181Z,92.40
2023-04-19T08:53:12.160Z,92.10
2023-04-19T08:56:06.992Z,92.40
2023-04-19T09:01:06.652Z,91.70
2023-04-19T09:03:41.210Z,91.90
2023-04-19T09:06:12.146Z,91.80
2023-04-19T09:08:41.077Z,91.40
2023-04-19T09:11:07.955Z,91.50
2023-04-19T09:13:38.324Z,91.10
2023-04-19T09:16:07.901Z,90.80
2023-04-19T09:19:08.520Z,90.50
2023-04-19T09:21:45.081Z,90.70
2023-04-19T09:24:12.032Z,90.80
2023-04-19T09:26:38.973Z,90.50
2023-04-19T09:29:06.788Z,90.00
2023-04-19T09:34:15.821Z,89.50
2023-04-19T09:36:42.919Z,89.00
2023-04-19T09:39:10.784Z,88.10
2023-04-19T09:41:53.877Z,88.00
2023-04-19T09:45:01.764Z,87.20
2023-04-19T09:47:29.984Z,86.60
2023-04-19T09:50:21.373Z,86.20
2023-04-19T09:52:51.038Z,85.00
2023-04-19T09:57:48.968Z,83.60
2023-04-19T10:00:16.294Z,83.20
2023-04-19T10:02:45.179Z,82.40
2023-04-19T10:05:20.284Z,82.10
2023-04-19T10:07:49.420Z,81.20
2023-04-19T10:10:20.679Z,81.00
2023-04-19T10:13:15.450Z,81.00
2023-04-19T10:15:50.576Z,80.20
2023-04-19T10:18:21.215Z,79.70
2023-04-19T10:21:06.606Z,79.00
2023-04-19T10:23:34.356Z,77.40
2023-04-19T10:26:01.127Z,77.40
2023-04-19T10:28:34.149Z,76.80
2023-04-19T10:31:03.286Z,75.40
2023-04-19T10:33:34.325Z,74.50
2023-04-19T10:36:01.514Z,74.40
2023-04-19T10:38:44.451Z,73.60
2023-04-19T10:41:18.474Z,73.00
2023-04-19T10:43:58.155Z,73.20
2023-04-19T10:46:26.256Z,72.00
2023-04-19T10:49:00.722Z,71.40
2023-04-19T10:51:28.470Z,71.80
2023-04-19T10:54:08.386Z,71.40
2023-04-19T10:56:35.334Z,70.50
2023-04-19T11:23:24.392Z,69.60
2023-04-19T11:25:52.829Z,69.10
2023-04-19T11:28:21.593Z,69.00
2023-04-19T11:30:49.876Z,68.50
2023-04-19T11:33:24.662Z,68.40
2023-04-19T11:35:51.526Z,68.60
2023-04-19T11:38:18.355Z,66.90
2023-04-19T11:40:45.260Z,66.40
2023-04-19T11:43:12.142Z,66.30
2023-04-19T11:45:43.948Z,65.80
2023-04-19T11:48:24.037Z,65.40
2023-04-19T11:50:50.897Z,64.70
2023-04-19T11:53:18.742Z,65.20
2023-04-19T11:55:51.493Z,64.40
2023-04-19T11:58:33.527Z,65.20
2023-04-19T12:01:12.681Z,64.60
2023-04-19T12:03:50.220Z,63.50
2023-04-19T12:06:22.232Z,62.80
2023-04-19T12:08:51.275Z,62.70
2023-04-19T12:11:21.628Z,61.50
2023-04-19T12:13:49.144Z,60.80
2023-04-19T12:16:27.927Z,62.10
2023-04-19T12:18:54.669Z,61.70
2023-04-19T12:21:32.466Z,60.90
2023-04-19T12:24:05.454Z,61.00
2023-04-19T12:26:32.573Z,60.10
2023-04-19T12:29:01.074Z,61.10
2023-04-19T12:31:28.018Z,60.40
2023-04-19T12:33:56.249Z,59.70
2023-04-19T12:36:25.619Z,58.70
2023-04-19T12:38:52.422Z,58.30
2023-04-19T12:41:19.425Z,58.00
2023-04-19T12:43:46.370Z,58.10
2023-04-19T12:46:13.142Z,58.00
2023-04-19T12:48:39.963Z,58.80
2023-04-19T12:51:06.714Z,58.60
2023-04-19T12:53:33.502Z,57.90
2023-04-19T12:56:05.679Z,57.10
2023-04-19T12:58:32.482Z,56.50
2023-04-19T13:01:00.166Z,55.50
2023-04-19T13:03:27.324Z,54.70
2023-04-19T13:05:54.383Z,53.80
2023-04-19T13:08:28.113Z,54.20
2023-04-19T13:11:00.658Z,53.30
2023-04-19T13:13:27.362Z,52.70
2023-04-19T13:15:54.119Z,52.80
2023-04-19T13:18:22.279Z,52.60
2023-04-19T13:20:50.559Z,52.30
2023-04-19T13:23:17.304Z,51.30
2023-04-19T13:25:44.059Z,50.80
2023-04-19T13:28:10.853Z,49.90
2023-04-19T13:30:37.653Z,49.90
2023-04-19T13:33:06.108Z,49.90
2023-04-19T13:35:34.197Z,48.70
2023-04-19T13:38:00.939Z,47.40
2023-04-19T13:40:27.642Z,46.10
2023-04-19T13:42:56.738Z,46.80
2023-04-19T13:45:23.451Z,46.30
2023-04-19T13:48:51.459Z,45.90
2023-04-19T13:59:09.592Z,44.30
2023-04-19T14:01:37.069Z,44.10
2023-04-19T14:04:04.397Z,44.30
2023-04-19T14:06:32.235Z,43.90
2023-04-19T14:08:59.151Z,43.00
2023-04-19T14:11:26.381Z,42.80
2023-04-19T14:13:53.629Z,42.50
2023-04-19T14:16:24.241Z,43.40
2023-04-19T14:18:51.893Z,43.20
2023-04-19T14:21:19.240Z,42.90
2023-04-19T14:23:46.272Z,42.90
2023-04-19T14:26:13.493Z,43.20
2023-04-19T14:28:40.496Z,42.30
2023-04-19T14:31:07.402Z,41.60
2023-04-19T14:33:34.427Z,42.50
2023-04-19T14:36:01.630Z,41.60
2023-04-19T14:38:28.624Z,41.60
2023-04-19T14:40:56.289Z,42.10
2023-04-19T14:43:23.235Z,41.90
2023-04-19T14:45:50.176Z,41.20
2023-04-19T14:48:17.108Z,40.90
2023-04-19T14:50:44.063Z,41.00
2023-04-19T14:53:10.886Z,41.50
2023-04-19T14:55:38.277Z,41.70
2023-04-19T14:58:05.779Z,41.50
2023-04-19T15:00:33.298Z,41.00
2023-04-19T15:03:01.376Z,40.60
2023-04-19T15:05:28.619Z,41.10
2023-04-19T15:07:55.609Z,39.80
2023-04-19T15:10:22.440Z,40.60
2023-04-19T15:12:49.159Z,40.70
2023-04-19T15:15:16.213Z,40.70
2023-04-19T15:17:43.287Z,40.50
2023-04-19T15:20:10.565Z,39.70
2023-04-19T15:22:37.440Z,40.40
2023-04-19T15:25:04.620Z,40.40
2023-04-19T15:27:31.522Z,40.20
2023-04-19T15:29:58.324Z,40.20
2023-04-19T15:32:25.216Z,40.50
2023-04-19T15:34:52.106Z,40.70
2023-04-19T15:37:18.942Z,40.60
2023-04-19T15:39:45.771Z,40.30
2023-04-19T15:42:12.816Z,40.00
2023-04-19T15:44:40.268Z,40.10
2023-04-19T15:47:07.823Z,40.80
2023-04-19T15:49:34.565Z,40.30
2023-04-19T15:52:01.465Z,40.60
2023-04-19T15:54:28.896Z,40.50
2023-04-19T15:56:56.041Z,40.70
2023-04-19T15:59:22.888Z,41.40
2023-04-19T16:01:49.732Z,42.00
2023-04-19T16:04:16.872Z,41.40
2023-04-19T16:06:43.825Z,41.90
2023-04-19T16:09:10.713Z,42.20
2023-04-19T16:11:39.102Z,42.30
2023-04-19T16:14:05.947Z,42.60
2023-04-19T16:16:34.354Z,42.00
2023-04-19T16:19:01.355Z,41.40
2023-04-19T16:21:28.895Z,42.60
2023-04-19T16:23:56.192Z,42.50
2023-04-19T16:26:23.544Z,43.10
2023-04-19T16:28:50.499Z,43.10
2023-04-19T16:31:17.455Z,43.80
2023-04-19T16:33:44.800Z,44.10
2023-04-19T16:36:11.678Z,45.30
2023-04-19T16:38:38.423Z,45.90
2023-04-19T16:41:05.868Z,45.40
2023-04-19T16:43:32.961Z,45.20
2023-04-19T16:45:59.801Z,45.10
2023-04-19T16:48:27.127Z,45.80
2023-04-19T16:50:54.035Z,45.60
2023-04-19T16:53:21.039Z,46.10
2023-04-19T16:55:47.961Z,45.90
2023-04-19T16:58:15.050Z,46.10
2023-04-19T17:00:41.876Z,46.20
2023-04-19T17:03:11.958Z,47.10
2023-04-19T17:05:38.935Z,46.90
2023-04-19T17:08:05.870Z,47.10
2023-04-19T17:10:32.639Z,48.00
2023-04-19T17:12:59.536Z,47.60
2023-04-19T17:15:26.739Z,49.20
2023-04-19T17:17:53.562Z,49.10
2023-04-19T17:20:20.461Z,49.10
2023-04-19T17:22:47.299Z,48.10
2023-04-19T17:25:14.505Z,49.30
2023-04-19T17:27:41.546Z,48.80
2023-04-19T17:30:08.844Z,49.40
2023-04-19T17:32:35.874Z,48.90
2023-04-19T17:35:04.112Z,48.50
2023-04-19T17:37:31.349Z,49.10
2023-04-19T17:39:58.242Z,49.00
2023-04-19T17:42:26.028Z,49.20
2023-04-19T17:44:53.198Z,49.10
2023-04-19T17:47:20.578Z,50.00
2023-04-19T17:49:47.702Z,49.50
2023-04-19T17:52:14.569Z,49.40
2023-04-19T17:54:41.308Z,49.90
2023-04-19T17:57:08.195Z,50.10
2023-04-19T17:59:35.242Z,49.50
2023-04-19T18:02:02.522Z,50.50
2023-04-19T18:04:30.980Z,50.10
2023-04-19T18:06:57.879Z,50.20
2023-04-19T18:09:24.638Z,50.00
2023-04-19T18:11:51.494Z,50.10
2023-04-19T18:14:18.319Z,50.50
2023-04-19T18:16:45.229Z,50.00
2023-04-19T18:19:12.128Z,50.80
2023-04-19T18:21:38.988Z,51.30
2023-04-19T18:24:06.379Z,50.30
2023-04-19T18:26:38.238Z,50.20
2023-04-19T18:29:05.256Z,50.00
2023-04-19T18:31:32.150Z,50.00
2023-04-19T18:34:00.443Z,50.00
2023-04-19T18:36:28.708Z,50.20
2023-04-19T18:38:55.967Z,50.60
2023-04-19T18:41:22.833Z,50.00
2023-04-19T18:44:12.825Z,50.60
2023-04-19T18:46:36.487Z,50.50
2023-04-19T18:49:03.259Z,51.00
2023-04-19T18:51:30.172Z,51.10
2023-04-19T18:53:57.045Z,51.10
2023-04-19T18:56:54.203Z,51.70
2023-04-19T19:23:53.693Z,54.50
2023-04-19T19:26:20.599Z,55.40
2023-04-19T19:28:47.427Z,55.60
2023-04-19T19:31:14.390Z,55.70
2023-04-19T19:33:41.240Z,55.60
2023-04-19T19:36:08.009Z,55.80
2023-04-19T19:38:37.908Z,56.20
2023-04-19T19:41:55.147Z,56.20
2023-04-19T19:43:54.458Z,56.10
2023-04-19T19:46:24.300Z,56.10
2023-04-19T19:48:53.793Z,56.40
2023-04-19T19:51:52.391Z,56.60
2023-04-19T19:54:11.516Z,56.20
2023-04-19T19:56:48.121Z,56.60
2023-04-19T20:29:07.897Z,56.60
2023-04-19T20:31:34.692Z,56.90
2023-04-19T20:34:01.440Z,56.90
2023-04-19T20:36:28.321Z,56.70
2023-04-19T20:38:56.958Z,57.90
2023-04-19T20:41:23.800Z,58.30
2023-04-19T20:43:50.658Z,57.80
2023-04-19T20:46:17.692Z,58.20
2023-04-19T20:48:44.563Z,57.60
2023-04-19T20:51:12.717Z,58.10
2023-04-19T20:53:39.600Z,57.80
2023-04-19T20:56:07.410Z,58.50
2023-04-19T21:24:26.328Z,60.20
2023-04-19T21:26:53.240Z,60.40
2023-04-19T21:29:20.898Z,60.60
2023-04-19T21:31:48.006Z,61.20
2023-04-19T21:34:19.519Z,60.70
2023-04-19T21:36:46.273Z,60.50
2023-04-19T21:39:13.034Z,60.70
2023-04-19T21:41:39.798Z,60.70
